sensor_id;sensor_type;location;lat;lon;timestamp;P1;durP1;ratioP1;P2;durP2;ratioP2
72123;SDS011;63818;37.134;-8.548;2023-07-13T00:02:17;13.2;;;9.6;;
72123;SDS011;63818;37.134;-8.548;2023-07-13T00:07:23;16.5;;;10.8;;
72123;SDS011;63818;37.134;-8.548;2023-07-13T00:12:23;14.1;;;10.4;;
72123;SDS011;63818;37.134;-8.548;2023-07-13T00:17:15;11.9;;;10.1;;
72123;SDS011;63818;37.134;-8.548;2023-07-13T00:22:01;12.2;;;9.9;;
72123;SDS011;63818;37.134;-8.548;2023-07-13T00:26:47;13.2;;;9.9;;
72123;SDS011;63818;37.134;-8.548;2023-07-13T00:31:33;15.6;;;10.1;;
72123;SDS011;63818;37.134;-8.548;2023-07-13T00:36:22;14.9;;;9.8;;
72123;SDS011;63818;37.134;-8.548;2023-07-13T00:41:11;12.4;;;9.2;;
72123;SDS011;63818;37.134;-8.548;2023-07-13T00:51:08;13.7;;;8.4;;
72123;SDS011;63818;37.134;-8.548;2023-07-13T00:55:56;12.9;;;8.5;;
72123;SDS011;63818;37.134;-8.548;2023-07-13T01:00:43;11.4;;;7.9;;
72123;SDS011;63818;37.134;-8.548;2023-07-13T01:05:32;10.8;;;7.3;;
72123;SDS011;63818;37.134;-8.548;2023-07-13T01:10:20;11.2;;;7.6;;
72123;SDS011;63818;37.134;-8.548;2023-07-13T01:15:38;11.0;;;7.6;;
72123;SDS011;63818;37.134;-8.548;2023-07-13T01:20:23;11.5;;;7.2;;
72123;SDS011;63818;37.134;-8.548;2023-07-13T01:25:14;10.9;;;6.9;;
72123;SDS011;63818;37.134;-8.548;2023-07-13T01:30:21;10.1;;;6.8;;
72123;SDS011;63818;37.134;-8.548;2023-07-13T01:35:06;9.4;;;6.6;;
72123;SDS011;63818;37.134;-8.548;2023-07-13T01:39:51;10.2;;;6.4;;
72123;SDS011;63818;37.134;-8.548;2023-07-13T01:44:37;10.3;;;6.2;;
72123;SDS011;63818;37.134;-8.548;2023-07-13T01:49:23;9.1;;;5.9;;
72123;SDS011;63818;37.134;-8.548;2023-07-13T01:54:13;8.9;;;5.8;;
72123;SDS011;63818;37.134;-8.548;2023-07-13T01:58:59;8.3;;;5.7;;
72123;SDS011;63818;37.134;-8.548;2023-07-13T02:03:45;8.0;;;5.5;;
72123;SDS011;63818;37.134;-8.548;2023-07-13T02:08:31;9.5;;;5.7;;
72123;SDS011;63818;37.134;-8.548;2023-07-13T02:13:18;10.4;;;5.6;;
72123;SDS011;63818;37.134;-8.548;2023-07-13T02:18:06;9.6;;;5.6;;
72123;SDS011;63818;37.134;-8.548;2023-07-13T02:22:53;9.0;;;5.8;;
72123;SDS011;63818;37.134;-8.548;2023-07-13T02:27:40;8.1;;;5.5;;
72123;SDS011;63818;37.134;-8.548;2023-07-13T02:32:25;8.6;;;5.4;;
72123;SDS011;63818;37.134;-8.548;2023-07-13T02:37:14;8.5;;;5.4;;
72123;SDS011;63818;37.134;-8.548;2023-07-13T02:41:59;7.9;;;5.4;;
72123;SDS011;63818;37.134;-8.548;2023-07-13T02:46:46;8.5;;;5.3;;
72123;SDS011;63818;37.134;-8.548;2023-07-13T02:51:32;8.2;;;5.2;;
72123;SDS011;63818;37.134;-8.548;2023-07-13T02:56:21;7.8;;;5.1;;
72123;SDS011;63818;37.134;-8.548;2023-07-13T03:01:12;8.5;;;5.1;;
72123;SDS011;63818;37.134;-8.548;2023-07-13T03:06:00;9.0;;;5.3;;
72123;SDS011;63818;37.134;-8.548;2023-07-13T03:10:46;8.9;;;5.3;;
72123;SDS011;63818;37.134;-8.548;2023-07-13T03:15:32;8.2;;;5.1;;
72123;SDS011;63818;37.134;-8.548;2023-07-13T03:20:18;7.3;;;4.8;;
72123;SDS011;63818;37.134;-8.548;2023-07-13T03:25:27;7.6;;;5.1;;
72123;SDS011;63818;37.134;-8.548;2023-07-13T03:30:12;7.5;;;4.9;;
72123;SDS011;63818;37.134;-8.548;2023-07-13T03:34:58;7.7;;;4.7;;
72123;SDS011;63818;37.134;-8.548;2023-07-13T03:39:44;8.2;;;4.7;;
72123;SDS011;63818;37.134;-8.548;2023-07-13T03:44:32;7.8;;;4.8;;
72123;SDS011;63818;37.134;-8.548;2023-07-13T03:49:18;7.3;;;4.6;;
72123;SDS011;63818;37.134;-8.548;2023-07-13T03:54:26;8.4;;;4.8;;
72123;SDS011;63818;37.134;-8.548;2023-07-13T03:59:12;7.5;;;4.6;;
72123;SDS011;63818;37.134;-8.548;2023-07-13T04:03:57;7.0;;;4.5;;
72123;SDS011;63818;37.134;-8.548;2023-07-13T04:09:46;8.1;;;4.7;;
72123;SDS011;63818;37.134;-8.548;2023-07-13T04:14:29;8.4;;;4.7;;
72123;SDS011;63818;37.134;-8.548;2023-07-13T04:19:38;7.2;;;4.7;;
72123;SDS011;63818;37.134;-8.548;2023-07-13T04:24:25;7.1;;;4.7;;
72123;SDS011;63818;37.134;-8.548;2023-07-13T04:29:32;7.0;;;4.5;;
72123;SDS011;63818;37.134;-8.548;2023-07-13T04:34:18;8.0;;;4.6;;
72123;SDS011;63818;37.134;-8.548;2023-07-13T04:39:24;6.9;;;4.5;;
72123;SDS011;63818;37.134;-8.548;2023-07-13T04:44:30;7.6;;;4.6;;
72123;SDS011;63818;37.134;-8.548;2023-07-13T04:49:15;8.8;;;4.6;;
72123;SDS011;63818;37.134;-8.548;2023-07-13T04:54:01;8.2;;;4.5;;
72123;SDS011;63818;37.134;-8.548;2023-07-13T04:59:13;6.7;;;4.6;;
72123;SDS011;63818;37.134;-8.548;2023-07-13T05:04:02;7.1;;;4.5;;
72123;SDS011;63818;37.134;-8.548;2023-07-13T05:08:54;7.2;;;4.5;;
72123;SDS011;63818;37.134;-8.548;2023-07-13T05:13:43;7.4;;;4.5;;
72123;SDS011;63818;37.134;-8.548;2023-07-13T05:18:30;7.6;;;4.5;;
72123;SDS011;63818;37.134;-8.548;2023-07-13T05:23:23;7.1;;;4.5;;
72123;SDS011;63818;37.134;-8.548;2023-07-13T05:28:09;7.0;;;4.5;;
72123;SDS011;63818;37.134;-8.548;2023-07-13T05:32:59;6.9;;;4.5;;
72123;SDS011;63818;37.134;-8.548;2023-07-13T05:37:45;7.2;;;4.3;;
72123;SDS011;63818;37.134;-8.548;2023-07-13T05:42:31;7.1;;;4.4;;
72123;SDS011;63818;37.134;-8.548;2023-07-13T05:47:18;7.8;;;4.4;;
72123;SDS011;63818;37.134;-8.548;2023-07-13T05:52:11;8.0;;;4.4;;
72123;SDS011;63818;37.134;-8.548;2023-07-13T05:56:57;7.5;;;4.5;;
72123;SDS011;63818;37.134;-8.548;2023-07-13T06:01:44;7.8;;;4.5;;
72123;SDS011;63818;37.134;-8.548;2023-07-13T06:06:30;6.8;;;4.3;;
72123;SDS011;63818;37.134;-8.548;2023-07-13T06:11:17;7.3;;;4.3;;
72123;SDS011;63818;37.134;-8.548;2023-07-13T06:16:05;9.1;;;4.6;;
72123;SDS011;63818;37.134;-8.548;2023-07-13T06:20:52;9.5;;;4.6;;
72123;SDS011;63818;37.134;-8.548;2023-07-13T06:25:38;9.2;;;4.6;;
72123;SDS011;63818;37.134;-8.548;2023-07-13T06:30:26;7.8;;;4.6;;
72123;SDS011;63818;37.134;-8.548;2023-07-13T06:35:13;6.7;;;4.4;;
72123;SDS011;63818;37.134;-8.548;2023-07-13T06:39:59;8.2;;;4.5;;
72123;SDS011;63818;37.134;-8.548;2023-07-13T06:44:45;8.8;;;4.5;;
72123;SDS011;63818;37.134;-8.548;2023-07-13T06:49:31;7.7;;;4.4;;
72123;SDS011;63818;37.134;-8.548;2023-07-13T06:54:17;12.0;;;4.6;;
72123;SDS011;63818;37.134;-8.548;2023-07-13T06:59:03;14.8;;;5.0;;
72123;SDS011;63818;37.134;-8.548;2023-07-13T07:03:49;11.3;;;5.1;;
72123;SDS011;63818;37.134;-8.548;2023-07-13T07:08:35;8.4;;;4.7;;
72123;SDS011;63818;37.134;-8.548;2023-07-13T07:13:21;9.0;;;4.7;;
72123;SDS011;63818;37.134;-8.548;2023-07-13T07:18:07;9.4;;;4.7;;
72123;SDS011;63818;37.134;-8.548;2023-07-13T07:22:55;8.8;;;4.7;;
72123;SDS011;63818;37.134;-8.548;2023-07-13T07:27:42;8.6;;;4.7;;
72123;SDS011;63818;37.134;-8.548;2023-07-13T07:32:31;8.0;;;4.6;;
72123;SDS011;63818;37.134;-8.548;2023-07-13T07:37:17;9.8;;;4.6;;
72123;SDS011;63818;37.134;-8.548;2023-07-13T07:42:04;9.5;;;4.5;;
72123;SDS011;63818;37.134;-8.548;2023-07-13T07:46:50;8.4;;;4.5;;
72123;SDS011;63818;37.134;-8.548;2023-07-13T07:51:37;9.3;;;4.9;;
72123;SDS011;63818;37.134;-8.548;2023-07-13T07:56:24;10.4;;;5.1;;
72123;SDS011;63818;37.134;-8.548;2023-07-13T08:01:11;10.8;;;4.8;;
72123;SDS011;63818;37.134;-8.548;2023-07-13T08:05:58;11.2;;;4.6;;
72123;SDS011;63818;37.134;-8.548;2023-07-13T08:10:45;10.1;;;4.7;;
72123;SDS011;63818;37.134;-8.548;2023-07-13T08:15:31;8.0;;;4.7;;
72123;SDS011;63818;37.134;-8.548;2023-07-13T08:20:17;7.1;;;4.4;;
72123;SDS011;63818;37.134;-8.548;2023-07-13T08:25:05;7.4;;;4.3;;
72123;SDS011;63818;37.134;-8.548;2023-07-13T08:29:52;8.6;;;4.4;;
72123;SDS011;63818;37.134;-8.548;2023-07-13T08:34:38;7.5;;;4.3;;
72123;SDS011;63818;37.134;-8.548;2023-07-13T08:39:24;6.7;;;4.2;;
72123;SDS011;63818;37.134;-8.548;2023-07-13T08:44:15;7.0;;;4.2;;
72123;SDS011;63818;37.134;-8.548;2023-07-13T08:49:11;7.0;;;4.2;;
72123;SDS011;63818;37.134;-8.548;2023-07-13T08:54:02;9.1;;;4.3;;
72123;SDS011;63818;37.134;-8.548;2023-07-13T08:58:51;9.1;;;4.3;;
72123;SDS011;63818;37.134;-8.548;2023-07-13T09:03:44;7.1;;;4.4;;
72123;SDS011;63818;37.134;-8.548;2023-07-13T09:08:49;6.4;;;4.4;;
72123;SDS011;63818;37.134;-8.548;2023-07-13T09:13:43;6.1;;;4.3;;
72123;SDS011;63818;37.134;-8.548;2023-07-13T09:18:38;6.4;;;4.3;;
72123;SDS011;63818;37.134;-8.548;2023-07-13T09:23:30;6.2;;;4.3;;
72123;SDS011;63818;37.134;-8.548;2023-07-13T09:28:17;6.2;;;4.2;;
72123;SDS011;63818;37.134;-8.548;2023-07-13T09:33:06;5.7;;;4.1;;
72123;SDS011;63818;37.134;-8.548;2023-07-13T09:37:56;5.8;;;4.2;;
72123;SDS011;63818;37.134;-8.548;2023-07-13T09:42:44;6.9;;;4.4;;
72123;SDS011;63818;37.134;-8.548;2023-07-13T09:47:31;7.1;;;4.5;;
72123;SDS011;63818;37.134;-8.548;2023-07-13T09:52:23;6.7;;;4.5;;
72123;SDS011;63818;37.134;-8.548;2023-07-13T09:57:14;9.3;;;4.6;;
72123;SDS011;63818;37.134;-8.548;2023-07-13T10:02:01;9.3;;;4.4;;
72123;SDS011;63818;37.134;-8.548;2023-07-13T10:06:47;6.8;;;4.4;;
72123;SDS011;63818;37.134;-8.548;2023-07-13T10:11:34;9.0;;;4.6;;
72123;SDS011;63818;37.134;-8.548;2023-07-13T10:16:21;8.5;;;4.5;;
72123;SDS011;63818;37.134;-8.548;2023-07-13T10:21:14;6.0;;;4.3;;
72123;SDS011;63818;37.134;-8.548;2023-07-13T10:26:02;12.2;;;4.7;;
72123;SDS011;63818;37.134;-8.548;2023-07-13T10:30:50;12.2;;;4.8;;
72123;SDS011;63818;37.134;-8.548;2023-07-13T10:35:40;6.8;;;4.5;;
72123;SDS011;63818;37.134;-8.548;2023-07-13T10:40:30;7.6;;;4.3;;
72123;SDS011;63818;37.134;-8.548;2023-07-13T10:45:22;12.3;;;5.3;;
72123;SDS011;63818;37.134;-8.548;2023-07-13T10:50:11;12.3;;;5.7;;
72123;SDS011;63818;37.134;-8.548;2023-07-13T10:55:05;13.1;;;5.3;;
72123;SDS011;63818;37.134;-8.548;2023-07-13T11:05:01;12.3;;;4.8;;
72123;SDS011;63818;37.134;-8.548;2023-07-13T11:10:06;11.0;;;4.7;;
72123;SDS011;63818;37.134;-8.548;2023-07-13T11:15:07;9.7;;;4.7;;
72123;SDS011;63818;37.134;-8.548;2023-07-13T11:19:57;6.6;;;4.4;;
72123;SDS011;63818;37.134;-8.548;2023-07-13T11:25:24;8.3;;;4.7;;
72123;SDS011;63818;37.134;-8.548;2023-07-13T11:30:25;9.0;;;4.6;;
72123;SDS011;63818;37.134;-8.548;2023-07-13T11:35:24;7.6;;;4.3;;
72123;SDS011;63818;37.134;-8.548;2023-07-13T11:40:14;7.1;;;4.4;;
72123;SDS011;63818;37.134;-8.548;2023-07-13T11:45:00;8.2;;;4.7;;
72123;SDS011;63818;37.134;-8.548;2023-07-13T11:49:48;8.6;;;4.7;;
72123;SDS011;63818;37.134;-8.548;2023-07-13T11:54:43;7.8;;;4.5;;
72123;SDS011;63818;37.134;-8.548;2023-07-13T11:59:33;7.5;;;4.7;;
72123;SDS011;63818;37.134;-8.548;2023-07-13T12:04:28;8.2;;;4.8;;
72123;SDS011;63818;37.134;-8.548;2023-07-13T12:09:14;9.9;;;5.5;;
72123;SDS011;63818;37.134;-8.548;2023-07-13T12:14:00;9.8;;;5.3;;
72123;SDS011;63818;37.134;-8.548;2023-07-13T12:18:46;9.0;;;4.7;;
72123;SDS011;63818;37.134;-8.548;2023-07-13T12:23:33;8.8;;;4.8;;
72123;SDS011;63818;37.134;-8.548;2023-07-13T12:28:34;9.2;;;4.5;;
72123;SDS011;63818;37.134;-8.548;2023-07-13T12:33:21;8.8;;;4.4;;
72123;SDS011;63818;37.134;-8.548;2023-07-13T12:38:13;7.9;;;4.4;;
72123;SDS011;63818;37.134;-8.548;2023-07-13T12:43:01;7.5;;;4.4;;
72123;SDS011;63818;37.134;-8.548;2023-07-13T12:47:49;8.1;;;4.5;;
72123;SDS011;63818;37.134;-8.548;2023-07-13T12:52:39;8.6;;;4.8;;
72123;SDS011;63818;37.134;-8.548;2023-07-13T12:57:25;11.3;;;5.4;;
72123;SDS011;63818;37.134;-8.548;2023-07-13T13:02:23;11.5;;;5.1;;
72123;SDS011;63818;37.134;-8.548;2023-07-13T13:07:14;7.6;;;4.5;;
72123;SDS011;63818;37.134;-8.548;2023-07-13T13:12:00;7.2;;;4.7;;
72123;SDS011;63818;37.134;-8.548;2023-07-13T13:16:49;11.8;;;4.9;;
72123;SDS011;63818;37.134;-8.548;2023-07-13T13:21:36;12.0;;;5.1;;
72123;SDS011;63818;37.134;-8.548;2023-07-13T13:26:25;8.5;;;5.4;;
72123;SDS011;63818;37.134;-8.548;2023-07-13T13:31:11;10.7;;;5.6;;
72123;SDS011;63818;37.134;-8.548;2023-07-13T13:35:57;9.6;;;5.2;;
72123;SDS011;63818;37.134;-8.548;2023-07-13T13:40:44;7.1;;;4.9;;
72123;SDS011;63818;37.134;-8.548;2023-07-13T13:45:31;12.2;;;5.4;;
72123;SDS011;63818;37.134;-8.548;2023-07-13T13:50:20;15.3;;;5.8;;
72123;SDS011;63818;37.134;-8.548;2023-07-13T13:55:10;11.5;;;5.6;;
72123;SDS011;63818;37.134;-8.548;2023-07-13T13:59:57;9.8;;;5.4;;
72123;SDS011;63818;37.134;-8.548;2023-07-13T14:04:43;9.3;;;5.3;;
72123;SDS011;63818;37.134;-8.548;2023-07-13T14:09:29;9.3;;;5.3;;
72123;SDS011;63818;37.134;-8.548;2023-07-13T14:14:16;10.8;;;5.5;;
72123;SDS011;63818;37.134;-8.548;2023-07-13T14:19:05;9.5;;;5.2;;
72123;SDS011;63818;37.134;-8.548;2023-07-13T14:23:51;8.0;;;5.0;;
72123;SDS011;63818;37.134;-8.548;2023-07-13T14:28:37;8.2;;;5.0;;
72123;SDS011;63818;37.134;-8.548;2023-07-13T14:33:26;9.1;;;5.0;;
72123;SDS011;63818;37.134;-8.548;2023-07-13T14:38:13;8.3;;;4.9;;
72123;SDS011;63818;37.134;-8.548;2023-07-13T14:43:02;6.8;;;4.7;;
72123;SDS011;63818;37.134;-8.548;2023-07-13T14:47:48;8.7;;;4.9;;
72123;SDS011;63818;37.134;-8.548;2023-07-13T14:52:34;8.6;;;4.8;;
72123;SDS011;63818;37.134;-8.548;2023-07-13T14:57:21;8.6;;;4.7;;
72123;SDS011;63818;37.134;-8.548;2023-07-13T15:02:15;9.4;;;4.7;;
72123;SDS011;63818;37.134;-8.548;2023-07-13T15:07:02;7.5;;;4.7;;
72123;SDS011;63818;37.134;-8.548;2023-07-13T15:11:48;6.9;;;4.6;;
72123;SDS011;63818;37.134;-8.548;2023-07-13T15:16:35;8.4;;;4.8;;
72123;SDS011;63818;37.134;-8.548;2023-07-13T15:21:21;9.7;;;5.1;;
72123;SDS011;63818;37.134;-8.548;2023-07-13T15:26:10;9.0;;;5.0;;
72123;SDS011;63818;37.134;-8.548;2023-07-13T15:30:57;10.6;;;4.8;;
72123;SDS011;63818;37.134;-8.548;2023-07-13T15:35:43;11.3;;;4.9;;
72123;SDS011;63818;37.134;-8.548;2023-07-13T15:40:32;8.5;;;4.9;;
72123;SDS011;63818;37.134;-8.548;2023-07-13T15:45:19;8.1;;;4.7;;
72123;SDS011;63818;37.134;-8.548;2023-07-13T15:50:08;8.4;;;4.6;;
72123;SDS011;63818;37.134;-8.548;2023-07-13T15:54:58;8.6;;;4.8;;
72123;SDS011;63818;37.134;-8.548;2023-07-13T15:59:46;8.6;;;4.8;;
72123;SDS011;63818;37.134;-8.548;2023-07-13T16:04:32;9.2;;;4.7;;
72123;SDS011;63818;37.134;-8.548;2023-07-13T16:09:19;9.9;;;4.7;;
72123;SDS011;63818;37.134;-8.548;2023-07-13T16:14:08;10.7;;;4.9;;
72123;SDS011;63818;37.134;-8.548;2023-07-13T16:19:00;10.5;;;5.1;;
72123;SDS011;63818;37.134;-8.548;2023-07-13T16:23:48;9.0;;;5.2;;
72123;SDS011;63818;37.134;-8.548;2023-07-13T16:28:35;9.0;;;5.3;;
72123;SDS011;63818;37.134;-8.548;2023-07-13T16:33:20;8.3;;;4.9;;
72123;SDS011;63818;37.134;-8.548;2023-07-13T16:38:12;7.5;;;4.6;;
72123;SDS011;63818;37.134;-8.548;2023-07-13T16:43:01;8.1;;;4.8;;
72123;SDS011;63818;37.134;-8.548;2023-07-13T16:47:48;9.5;;;4.8;;
72123;SDS011;63818;37.134;-8.548;2023-07-13T16:52:34;10.2;;;4.8;;
72123;SDS011;63818;37.134;-8.548;2023-07-13T16:57:22;9.0;;;4.9;;
72123;SDS011;63818;37.134;-8.548;2023-07-13T17:02:31;7.6;;;4.7;;
72123;SDS011;63818;37.134;-8.548;2023-07-13T17:07:21;9.1;;;4.5;;
72123;SDS011;63818;37.134;-8.548;2023-07-13T17:12:10;11.4;;;4.5;;
72123;SDS011;63818;37.134;-8.548;2023-07-13T17:16:56;12.1;;;4.5;;
72123;SDS011;63818;37.134;-8.548;2023-07-13T17:21:44;10.5;;;4.6;;
72123;SDS011;63818;37.134;-8.548;2023-07-13T17:26:32;11.2;;;4.5;;
72123;SDS011;63818;37.134;-8.548;2023-07-13T17:31:19;11.9;;;4.5;;
72123;SDS011;63818;37.134;-8.548;2023-07-13T17:36:10;9.6;;;4.6;;
72123;SDS011;63818;37.134;-8.548;2023-07-13T17:40:58;9.1;;;4.7;;
72123;SDS011;63818;37.134;-8.548;2023-07-13T17:45:45;8.1;;;4.7;;
72123;SDS011;63818;37.134;-8.548;2023-07-13T17:50:31;7.4;;;4.6;;
72123;SDS011;63818;37.134;-8.548;2023-07-13T17:55:19;10.1;;;4.8;;
72123;SDS011;63818;37.134;-8.548;2023-07-13T18:00:06;9.9;;;4.7;;
72123;SDS011;63818;37.134;-8.548;2023-07-13T18:04:52;9.5;;;4.6;;
72123;SDS011;63818;37.134;-8.548;2023-07-13T18:09:38;10.9;;;4.8;;
72123;SDS011;63818;37.134;-8.548;2023-07-13T18:14:24;10.2;;;4.8;;
72123;SDS011;63818;37.134;-8.548;2023-07-13T18:19:22;9.6;;;4.6;;
72123;SDS011;63818;37.134;-8.548;2023-07-13T18:24:15;7.9;;;4.6;;
72123;SDS011;63818;37.134;-8.548;2023-07-13T18:29:03;8.8;;;4.6;;
72123;SDS011;63818;37.134;-8.548;2023-07-13T18:33:50;11.0;;;4.6;;
72123;SDS011;63818;37.134;-8.548;2023-07-13T18:38:38;12.0;;;4.8;;
72123;SDS011;63818;37.134;-8.548;2023-07-13T18:43:24;11.9;;;5.0;;
72123;SDS011;63818;37.134;-8.548;2023-07-13T18:48:12;10.5;;;5.1;;
72123;SDS011;63818;37.134;-8.548;2023-07-13T18:53:04;8.7;;;4.7;;
72123;SDS011;63818;37.134;-8.548;2023-07-13T18:57:56;8.4;;;4.5;;
72123;SDS011;63818;37.134;-8.548;2023-07-13T19:02:42;9.8;;;4.6;;
72123;SDS011;63818;37.134;-8.548;2023-07-13T19:07:28;9.9;;;4.7;;
72123;SDS011;63818;37.134;-8.548;2023-07-13T19:12:16;8.5;;;4.6;;
72123;SDS011;63818;37.134;-8.548;2023-07-13T19:17:04;7.4;;;4.5;;
72123;SDS011;63818;37.134;-8.548;2023-07-13T19:21:50;8.8;;;4.7;;
72123;SDS011;63818;37.134;-8.548;2023-07-13T19:26:37;9.2;;;4.9;;
72123;SDS011;63818;37.134;-8.548;2023-07-13T19:31:25;8.4;;;4.8;;
72123;SDS011;63818;37.134;-8.548;2023-07-13T19:36:13;8.7;;;4.8;;
72123;SDS011;63818;37.134;-8.548;2023-07-13T19:40:59;8.4;;;4.8;;
72123;SDS011;63818;37.134;-8.548;2023-07-13T19:45:45;8.3;;;4.7;;
72123;SDS011;63818;37.134;-8.548;2023-07-13T19:50:31;8.4;;;4.7;;
72123;SDS011;63818;37.134;-8.548;2023-07-13T19:55:18;8.2;;;4.5;;
72123;SDS011;63818;37.134;-8.548;2023-07-13T20:00:09;9.4;;;4.7;;
72123;SDS011;63818;37.134;-8.548;2023-07-13T20:05:09;9.8;;;4.9;;
72123;SDS011;63818;37.134;-8.548;2023-07-13T20:09:55;9.0;;;4.7;;
72123;SDS011;63818;37.134;-8.548;2023-07-13T20:14:41;10.1;;;4.6;;
72123;SDS011;63818;37.134;-8.548;2023-07-13T20:19:32;12.1;;;4.5;;
72123;SDS011;63818;37.134;-8.548;2023-07-13T20:24:21;11.2;;;4.7;;
72123;SDS011;63818;37.134;-8.548;2023-07-13T20:29:07;10.6;;;4.5;;
72123;SDS011;63818;37.134;-8.548;2023-07-13T20:33:53;13.1;;;4.4;;
72123;SDS011;63818;37.134;-8.548;2023-07-13T20:38:41;11.1;;;4.4;;
72123;SDS011;63818;37.134;-8.548;2023-07-13T20:43:28;7.7;;;4.6;;
72123;SDS011;63818;37.134;-8.548;2023-07-13T20:48:25;7.6;;;4.7;;
72123;SDS011;63818;37.134;-8.548;2023-07-13T20:53:12;9.7;;;4.4;;
72123;SDS011;63818;37.134;-8.548;2023-07-13T20:57:59;9.4;;;4.6;;
72123;SDS011;63818;37.134;-8.548;2023-07-13T21:02:45;7.5;;;4.6;;
72123;SDS011;63818;37.134;-8.548;2023-07-13T21:07:33;7.4;;;4.5;;
72123;SDS011;63818;37.134;-8.548;2023-07-13T21:12:21;9.1;;;4.4;;
72123;SDS011;63818;37.134;-8.548;2023-07-13T21:17:10;8.9;;;4.2;;
72123;SDS011;63818;37.134;-8.548;2023-07-13T21:21:58;6.5;;;4.2;;
72123;SDS011;63818;37.134;-8.548;2023-07-13T21:26:44;6.6;;;4.3;;
72123;SDS011;63818;37.134;-8.548;2023-07-13T21:31:31;9.8;;;4.5;;
72123;SDS011;63818;37.134;-8.548;2023-07-13T21:36:19;11.2;;;5.1;;
72123;SDS011;63818;37.134;-8.548;2023-07-13T21:41:06;9.3;;;5.1;;
72123;SDS011;63818;37.134;-8.548;2023-07-13T21:45:58;8.0;;;4.5;;
72123;SDS011;63818;37.134;-8.548;2023-07-13T21:50:46;7.3;;;4.4;;
72123;SDS011;63818;37.134;-8.548;2023-07-13T21:55:33;7.2;;;4.4;;
72123;SDS011;63818;37.134;-8.548;2023-07-13T22:00:22;7.6;;;4.4;;
72123;SDS011;63818;37.134;-8.548;2023-07-13T22:05:13;7.5;;;4.3;;
72123;SDS011;63818;37.134;-8.548;2023-07-13T22:10:00;6.6;;;4.3;;
72123;SDS011;63818;37.134;-8.548;2023-07-13T22:14:46;6.9;;;4.3;;
72123;SDS011;63818;37.134;-8.548;2023-07-13T22:19:32;9.3;;;4.4;;
72123;SDS011;63818;37.134;-8.548;2023-07-13T22:24:19;10.5;;;4.6;;
72123;SDS011;63818;37.134;-8.548;2023-07-13T22:29:15;7.6;;;4.5;;
72123;SDS011;63818;37.134;-8.548;2023-07-13T22:34:01;6.9;;;4.3;;
72123;SDS011;63818;37.134;-8.548;2023-07-13T22:38:47;11.1;;;4.3;;
72123;SDS011;63818;37.134;-8.548;2023-07-13T22:43:33;10.8;;;4.4;;
72123;SDS011;63818;37.134;-8.548;2023-07-13T22:48:20;6.7;;;4.4;;
72123;SDS011;63818;37.134;-8.548;2023-07-13T22:53:10;6.3;;;4.4;;
72123;SDS011;63818;37.134;-8.548;2023-07-13T22:57:58;6.7;;;4.5;;
72123;SDS011;63818;37.134;-8.548;2023-07-13T23:02:44;7.0;;;4.4;;
72123;SDS011;63818;37.134;-8.548;2023-07-13T23:07:31;8.1;;;4.4;;
72123;SDS011;63818;37.134;-8.548;2023-07-13T23:12:17;8.0;;;4.4;;
72123;SDS011;63818;37.134;-8.548;2023-07-13T23:17:08;6.9;;;4.4;;
72123;SDS011;63818;37.134;-8.548;2023-07-13T23:21:56;7.0;;;4.4;;
72123;SDS011;63818;37.134;-8.548;2023-07-13T23:26:43;8.2;;;4.4;;
72123;SDS011;63818;37.134;-8.548;2023-07-13T23:31:31;8.7;;;4.6;;
72123;SDS011;63818;37.134;-8.548;2023-07-13T23:36:19;10.6;;;4.5;;
72123;SDS011;63818;37.134;-8.548;2023-07-13T23:41:08;9.8;;;4.3;;
72123;SDS011;63818;37.134;-8.548;2023-07-13T23:45:55;6.3;;;4.3;;
72123;SDS011;63818;37.134;-8.548;2023-07-13T23:50:42;7.4;;;4.4;;
72123;SDS011;63818;37.134;-8.548;2023-07-13T23:55:30;8.5;;;4.5;;
